sensor_id;sensor_type;location;lat;lon;timestamp;pressure;altitude;pressure_sealevel;temperature;humidity
70544;BME280;58097;48.364;-1.224;2023-09-12T00:00:33;99441.63;;;18.81;83.25
70544;BME280;58097;48.364;-1.224;2023-09-12T00:02:59;99452.81;;;18.81;83.68
70544;BME280;58097;48.364;-1.224;2023-09-12T00:05:24;99452.81;;;18.81;83.40
70544;BME280;58097;48.364;-1.224;2023-09-12T00:07:52;99448.09;;;18.81;83.46
70544;BME280;58097;48.364;-1.224;2023-09-12T00:10:17;99453.47;;;18.83;83.68
70544;BME280;58097;48.364;-1.224;2023-09-12T00:12:43;99451.06;;;18.86;83.95
70544;BME280;58097;48.364;-1.224;2023-09-12T00:15:08;99449.13;;;18.87;84.26
70544;BME280;58097;48.364;-1.224;2023-09-12T00:17:34;99450.59;;;18.90;84.58
70544;BME280;58097;48.364;-1.224;2023-09-12T00:19:59;99453.19;;;18.91;84.47
70544;BME280;58097;48.364;-1.224;2023-09-12T00:22:24;99452.31;;;18.91;84.68
70544;BME280;58097;48.364;-1.224;2023-09-12T00:24:50;99453.19;;;18.91;84.51
70544;BME280;58097;48.364;-1.224;2023-09-12T00:27:15;99452.53;;;18.89;84.34
70544;BME280;58097;48.364;-1.224;2023-09-12T00:29:40;99449.75;;;18.89;84.51
70544;BME280;58097;48.364;-1.224;2023-09-12T00:32:06;99442.66;;;18.86;84.47
70544;BME280;58097;48.364;-1.224;2023-09-12T00:34:31;99443.50;;;18.87;84.12
70544;BME280;58097;48.364;-1.224;2023-09-12T00:36:56;99440.72;;;18.87;83.86
70544;BME280;58097;48.364;-1.224;2023-09-12T00:39:22;99437.06;;;18.86;83.60
70544;BME280;58097;48.364;-1.224;2023-09-12T00:41:47;99436.44;;;18.84;83.83
70544;BME280;58097;48.364;-1.224;2023-09-12T00:44:12;99430.19;;;18.82;84.16
70544;BME280;58097;48.364;-1.224;2023-09-12T00:46:38;99429.13;;;18.77;84.43
70544;BME280;58097;48.364;-1.224;2023-09-12T00:49:06;99421.81;;;18.76;84.10
70544;BME280;58097;48.364;-1.224;2023-09-12T00:51:33;99424.00;;;18.74;83.72
70544;BME280;58097;48.364;-1.224;2023-09-12T00:53:59;99415.81;;;18.72;83.85
70544;BME280;58097;48.364;-1.224;2023-09-12T00:56:25;99416.91;;;18.71;83.75
70544;BME280;58097;48.364;-1.224;2023-09-12T00:58:51;99417.13;;;18.70;83.61
70544;BME280;58097;48.364;-1.224;2023-09-12T01:01:18;99417.81;;;18.65;83.49
70544;BME280;58097;48.364;-1.224;2023-09-12T01:03:44;99420.19;;;18.62;83.72
70544;BME280;58097;48.364;-1.224;2023-09-12T01:06:09;99422.56;;;18.58;84.41
70544;BME280;58097;48.364;-1.224;2023-09-12T01:08:35;99413.31;;;18.57;84.46
70544;BME280;58097;48.364;-1.224;2023-09-12T01:11:03;99424.13;;;18.54;84.24
70544;BME280;58097;48.364;-1.224;2023-09-12T01:13:29;99408.84;;;18.50;84.02
70544;BME280;58097;48.364;-1.224;2023-09-12T01:15:54;99404.53;;;18.47;83.46
70544;BME280;58097;48.364;-1.224;2023-09-12T01:18:20;99401.97;;;18.46;83.74
70544;BME280;58097;48.364;-1.224;2023-09-12T01:23:44;99397.06;;;18.41;83.47
70544;BME280;58097;48.364;-1.224;2023-09-12T01:28:55;99390.44;;;18.36;83.37
70544;BME280;58097;48.364;-1.224;2023-09-12T01:31:23;99396.03;;;18.36;83.51
70544;BME280;58097;48.364;-1.224;2023-09-12T01:33:49;99385.91;;;18.35;83.49
70544;BME280;58097;48.364;-1.224;2023-09-12T01:36:15;99388.09;;;18.33;83.39
70544;BME280;58097;48.364;-1.224;2023-09-12T01:38:41;99396.06;;;18.29;83.44
70544;BME280;58097;48.364;-1.224;2023-09-12T01:41:06;99390.69;;;18.27;84.50
70544;BME280;58097;48.364;-1.224;2023-09-12T01:43:33;99387.06;;;18.20;84.60
70544;BME280;58097;48.364;-1.224;2023-09-12T01:46:01;99390.31;;;18.17;85.33
70544;BME280;58097;48.364;-1.224;2023-09-12T01:48:32;99396.13;;;18.16;84.91
70544;BME280;58097;48.364;-1.224;2023-09-12T01:50:59;99393.09;;;18.17;84.77
70544;BME280;58097;48.364;-1.224;2023-09-12T01:53:26;99396.53;;;18.19;84.49
70544;BME280;58097;48.364;-1.224;2023-09-12T01:55:51;99388.13;;;18.19;84.10
70544;BME280;58097;48.364;-1.224;2023-09-12T01:58:17;99394.41;;;18.21;84.01
70544;BME280;58097;48.364;-1.224;2023-09-12T02:00:43;99398.47;;;18.19;83.60
70544;BME280;58097;48.364;-1.224;2023-09-12T02:03:08;99395.03;;;18.17;83.78
70544;BME280;58097;48.364;-1.224;2023-09-12T02:05:34;99407.06;;;18.17;83.91
70544;BME280;58097;48.364;-1.224;2023-09-12T02:07:59;99408.38;;;18.15;83.71
70544;BME280;58097;48.364;-1.224;2023-09-12T02:10:30;99405.41;;;18.10;83.30
70544;BME280;58097;48.364;-1.224;2023-09-12T02:12:55;99412.31;;;18.07;83.55
70544;BME280;58097;48.364;-1.224;2023-09-12T02:15:20;99411.03;;;18.03;83.79
70544;BME280;58097;48.364;-1.224;2023-09-12T02:17:46;99413.81;;;18.03;83.43
70544;BME280;58097;48.364;-1.224;2023-09-12T02:20:11;99414.06;;;18.02;83.30
70544;BME280;58097;48.364;-1.224;2023-09-12T02:22:36;99412.34;;;18.01;83.25
70544;BME280;58097;48.364;-1.224;2023-09-12T02:25:05;99409.13;;;17.97;83.71
70544;BME280;58097;48.364;-1.224;2023-09-12T02:27:31;99411.94;;;17.97;84.35
70544;BME280;58097;48.364;-1.224;2023-09-12T02:29:56;99408.69;;;18.00;84.95
70544;BME280;58097;48.364;-1.224;2023-09-12T02:32:21;99416.19;;;18.06;85.03
70544;BME280;58097;48.364;-1.224;2023-09-12T02:34:47;99417.44;;;18.10;85.13
70544;BME280;58097;48.364;-1.224;2023-09-12T02:37:12;99416.56;;;18.16;85.31
70544;BME280;58097;48.364;-1.224;2023-09-12T02:39:38;99410.50;;;18.19;85.89
70544;BME280;58097;48.364;-1.224;2023-09-12T02:42:03;99404.28;;;18.24;85.95
70544;BME280;58097;48.364;-1.224;2023-09-12T02:44:28;99408.34;;;18.28;86.65
70544;BME280;58097;48.364;-1.224;2023-09-12T02:46:54;99408.75;;;18.32;87.00
70544;BME280;58097;48.364;-1.224;2023-09-12T02:49:19;99400.31;;;18.38;87.33
70544;BME280;58097;48.364;-1.224;2023-09-12T02:51:45;99403.09;;;18.38;87.39
70544;BME280;58097;48.364;-1.224;2023-09-12T02:54:10;99402.25;;;18.38;87.16
70544;BME280;58097;48.364;-1.224;2023-09-12T02:56:36;99402.88;;;18.40;87.65
70544;BME280;58097;48.364;-1.224;2023-09-12T02:59:01;99407.78;;;18.44;87.51
70544;BME280;58097;48.364;-1.224;2023-09-12T03:01:26;99400.66;;;18.48;87.32
70544;BME280;58097;48.364;-1.224;2023-09-12T03:03:53;99392.28;;;18.48;88.96
70544;BME280;58097;48.364;-1.224;2023-09-12T03:06:19;99391.22;;;18.43;88.05
70544;BME280;58097;48.364;-1.224;2023-09-12T03:08:45;99399.00;;;18.41;87.51
70544;BME280;58097;48.364;-1.224;2023-09-12T03:11:10;99396.66;;;18.38;87.79
70544;BME280;58097;48.364;-1.224;2023-09-12T03:13:37;99394.53;;;18.33;87.45
70544;BME280;58097;48.364;-1.224;2023-09-12T03:16:03;99399.09;;;18.27;87.34
70544;BME280;58097;48.364;-1.224;2023-09-12T03:18:28;99393.31;;;18.22;87.45
70544;BME280;58097;48.364;-1.224;2023-09-12T03:20:54;99395.25;;;18.22;87.36
70544;BME280;58097;48.364;-1.224;2023-09-12T03:23:19;99397.19;;;18.21;87.28
70544;BME280;58097;48.364;-1.224;2023-09-12T03:25:45;99395.25;;;18.22;87.23
70544;BME280;58097;48.364;-1.224;2023-09-12T03:28:11;99402.78;;;18.21;87.27
70544;BME280;58097;48.364;-1.224;2023-09-12T03:30:37;99396.31;;;18.21;87.09
70544;BME280;58097;48.364;-1.224;2023-09-12T03:33:03;99400.19;;;18.20;87.00
70544;BME280;58097;48.364;-1.224;2023-09-12T03:35:29;99397.38;;;18.20;86.87
70544;BME280;58097;48.364;-1.224;2023-09-12T03:37:55;99397.84;;;18.17;86.52
70544;BME280;58097;48.364;-1.224;2023-09-12T03:40:20;99408.16;;;18.16;86.51
70544;BME280;58097;48.364;-1.224;2023-09-12T03:42:46;99401.06;;;18.14;85.86
70544;BME280;58097;48.364;-1.224;2023-09-12T03:45:11;99404.31;;;18.11;86.35
70544;BME280;58097;48.364;-1.224;2023-09-12T03:47:37;99402.84;;;18.08;86.60
70544;BME280;58097;48.364;-1.224;2023-09-12T03:50:02;99399.84;;;18.03;86.83
70544;BME280;58097;48.364;-1.224;2023-09-12T03:52:28;99402.41;;;18.05;86.69
70544;BME280;58097;48.364;-1.224;2023-09-12T03:54:54;99399.41;;;18.06;86.99
70544;BME280;58097;48.364;-1.224;2023-09-12T03:57:19;99392.72;;;18.07;86.75
70544;BME280;58097;48.364;-1.224;2023-09-12T03:59:45;99402.84;;;18.08;86.82
70544;BME280;58097;48.364;-1.224;2023-09-12T04:02:12;99400.03;;;18.08;86.86
70544;BME280;58097;48.364;-1.224;2023-09-12T04:04:37;99403.47;;;18.10;86.89
70544;BME280;58097;48.364;-1.224;2023-09-12T04:07:03;99409.47;;;18.14;87.63
70544;BME280;58097;48.364;-1.224;2023-09-12T04:09:28;99407.31;;;18.16;87.41
70544;BME280;58097;48.364;-1.224;2023-09-12T04:11:54;99407.53;;;18.14;87.88
70544;BME280;58097;48.364;-1.224;2023-09-12T04:14:20;99412.91;;;18.16;88.10
70544;BME280;58097;48.364;-1.224;2023-09-12T04:16:46;99408.56;;;18.20;88.16
70544;BME280;58097;48.364;-1.224;2023-09-12T04:19:13;99412.88;;;18.22;88.48
70544;BME280;58097;48.364;-1.224;2023-09-12T04:21:38;99413.53;;;18.24;88.47
70544;BME280;58097;48.364;-1.224;2023-09-12T04:24:04;99407.94;;;18.24;88.62
70544;BME280;58097;48.364;-1.224;2023-09-12T04:26:29;99409.63;;;18.25;88.84
70544;BME280;58097;48.364;-1.224;2023-09-12T04:28:55;99410.47;;;18.33;89.11
70544;BME280;58097;48.364;-1.224;2023-09-12T04:31:20;99413.88;;;18.35;89.43
70544;BME280;58097;48.364;-1.224;2023-09-12T04:33:45;99408.09;;;18.30;88.68
70544;BME280;58097;48.364;-1.224;2023-09-12T04:36:11;99404.91;;;18.26;88.91
70544;BME280;58097;48.364;-1.224;2023-09-12T04:38:36;99400.63;;;18.23;89.11
70544;BME280;58097;48.364;-1.224;2023-09-12T04:41:02;99402.13;;;18.26;89.21
70544;BME280;58097;48.364;-1.224;2023-09-12T04:43:30;99399.09;;;18.27;89.41
70544;BME280;58097;48.364;-1.224;2023-09-12T04:45:56;99399.72;;;18.30;88.84
70544;BME280;58097;48.364;-1.224;2023-09-12T04:48:21;99396.28;;;18.27;88.99
70544;BME280;58097;48.364;-1.224;2023-09-12T04:50:47;99404.22;;;18.31;89.19
70544;BME280;58097;48.364;-1.224;2023-09-12T04:53:12;99395.44;;;18.27;89.00
70544;BME280;58097;48.364;-1.224;2023-09-12T04:55:38;99404.91;;;18.26;89.17
70544;BME280;58097;48.364;-1.224;2023-09-12T04:58:04;99409.63;;;18.25;89.14
70544;BME280;58097;48.364;-1.224;2023-09-12T05:00:30;99409.00;;;18.23;88.95
70544;BME280;58097;48.364;-1.224;2023-09-12T05:02:55;99419.56;;;18.21;89.01
70544;BME280;58097;48.364;-1.224;2023-09-12T05:05:21;99417.81;;;18.20;89.27
70544;BME280;58097;48.364;-1.224;2023-09-12T05:07:46;99420.41;;;18.22;88.99
70544;BME280;58097;48.364;-1.224;2023-09-12T05:10:12;99411.81;;;18.23;89.22
70544;BME280;58097;48.364;-1.224;2023-09-12T05:12:37;99413.06;;;18.27;89.26
70544;BME280;58097;48.364;-1.224;2023-09-12T05:15:03;99407.66;;;18.33;89.70
70544;BME280;58097;48.364;-1.224;2023-09-12T05:17:29;99413.44;;;18.38;89.78
70544;BME280;58097;48.364;-1.224;2023-09-12T05:19:54;99416.63;;;18.41;89.75
70544;BME280;58097;48.364;-1.224;2023-09-12T05:22:19;99421.16;;;18.42;90.11
70544;BME280;58097;48.364;-1.224;2023-09-12T05:24:45;99417.03;;;18.45;90.03
70544;BME280;58097;48.364;-1.224;2023-09-12T05:27:11;99418.53;;;18.47;90.15
70544;BME280;58097;48.364;-1.224;2023-09-12T05:29:37;99419.38;;;18.48;90.43
70544;BME280;58097;48.364;-1.224;2023-09-12T05:32:03;99426.28;;;18.52;90.24
70544;BME280;58097;48.364;-1.224;2023-09-12T05:34:28;99422.19;;;18.54;90.30
70544;BME280;58097;48.364;-1.224;2023-09-12T05:36:54;99430.13;;;18.57;90.18
70544;BME280;58097;48.364;-1.224;2023-09-12T05:39:19;99426.00;;;18.60;90.44
70544;BME280;58097;48.364;-1.224;2023-09-12T05:41:45;99416.53;;;18.61;90.48
70544;BME280;58097;48.364;-1.224;2023-09-12T05:44:10;99418.28;;;18.62;90.03
70544;BME280;58097;48.364;-1.224;2023-09-12T05:46:38;99418.03;;;18.64;89.99
70544;BME280;58097;48.364;-1.224;2023-09-12T05:49:03;99420.00;;;18.63;89.84
70544;BME280;58097;48.364;-1.224;2023-09-12T05:51:29;99414.38;;;18.63;90.07
70544;BME280;58097;48.364;-1.224;2023-09-12T05:53:55;99410.75;;;18.63;90.08
70544;BME280;58097;48.364;-1.224;2023-09-12T05:56:20;99409.88;;;18.62;89.97
70544;BME280;58097;48.364;-1.224;2023-09-12T05:58:46;99408.13;;;18.61;90.02
70544;BME280;58097;48.364;-1.224;2023-09-12T06:01:11;99389.22;;;18.63;90.25
70544;BME280;58097;48.364;-1.224;2023-09-12T06:03:36;99407.28;;;18.61;90.27
70544;BME280;58097;48.364;-1.224;2023-09-12T06:06:02;99404.94;;;18.57;90.48
70544;BME280;58097;48.364;-1.224;2023-09-12T06:08:27;99407.78;;;18.51;91.36
70544;BME280;58097;48.364;-1.224;2023-09-12T06:10:53;99412.72;;;18.49;90.57
70544;BME280;58097;48.364;-1.224;2023-09-12T06:13:19;99420.03;;;18.50;90.46
70544;BME280;58097;48.364;-1.224;2023-09-12T06:15:45;99418.31;;;18.49;90.52
70544;BME280;58097;48.364;-1.224;2023-09-12T06:18:10;99428.22;;;18.45;91.32
70544;BME280;58097;48.364;-1.224;2023-09-12T06:20:36;99442.22;;;18.45;90.72
70544;BME280;58097;48.364;-1.224;2023-09-12T06:23:02;99443.94;;;18.46;90.66
70544;BME280;58097;48.364;-1.224;2023-09-12T06:25:28;99454.06;;;18.47;91.48
70544;BME280;58097;48.364;-1.224;2023-09-12T06:27:54;99459.25;;;18.43;91.60
70544;BME280;58097;48.364;-1.224;2023-09-12T06:30:20;99461.63;;;18.40;91.00
70544;BME280;58097;48.364;-1.224;2023-09-12T06:32:45;99467.84;;;18.42;91.42
70544;BME280;58097;48.364;-1.224;2023-09-12T06:35:10;99466.78;;;18.43;91.28
70544;BME280;58097;48.364;-1.224;2023-09-12T06:37:38;99468.66;;;18.49;91.70
70544;BME280;58097;48.364;-1.224;2023-09-12T06:40:05;99470.81;;;18.53;91.65
70544;BME280;58097;48.364;-1.224;2023-09-12T06:42:31;99469.06;;;18.59;91.66
70544;BME280;58097;48.364;-1.224;2023-09-12T06:44:56;99470.78;;;18.67;91.76
70544;BME280;58097;48.364;-1.224;2023-09-12T06:47:21;99481.28;;;18.71;91.65
70544;BME280;58097;48.364;-1.224;2023-09-12T06:49:47;99482.59;;;18.69;92.07
70544;BME280;58097;48.364;-1.224;2023-09-12T06:52:12;99489.91;;;18.70;91.94
70544;BME280;58097;48.364;-1.224;2023-09-12T06:54:38;99487.34;;;18.68;91.94
70544;BME280;58097;48.364;-1.224;2023-09-12T06:57:04;99494.47;;;18.64;91.78
70544;BME280;58097;48.364;-1.224;2023-09-12T06:59:29;99503.94;;;18.63;92.61
70544;BME280;58097;48.364;-1.224;2023-09-12T07:01:54;99502.25;;;18.55;92.61
70544;BME280;58097;48.364;-1.224;2023-09-12T07:04:20;99496.41;;;18.57;92.12
70544;BME280;58097;48.364;-1.224;2023-09-12T07:06:45;99510.81;;;18.61;92.12
70544;BME280;58097;48.364;-1.224;2023-09-12T07:09:11;99505.44;;;18.66;92.32
70544;BME280;58097;48.364;-1.224;2023-09-12T07:11:39;99514.00;;;18.71;92.89
70544;BME280;58097;48.364;-1.224;2023-09-12T07:14:05;99507.75;;;18.75;92.57
70544;BME280;58097;48.364;-1.224;2023-09-12T07:16:31;99512.25;;;18.76;92.24
70544;BME280;58097;48.364;-1.224;2023-09-12T07:18:57;99519.16;;;18.80;92.86
70544;BME280;58097;48.364;-1.224;2023-09-12T07:21:22;99524.31;;;18.83;93.47
70544;BME280;58097;48.364;-1.224;2023-09-12T07:23:48;99524.75;;;18.80;93.15
70544;BME280;58097;48.364;-1.224;2023-09-12T07:26:14;99520.25;;;18.79;92.92
70544;BME280;58097;48.364;-1.224;2023-09-12T07:28:40;99515.28;;;18.81;93.05
70544;BME280;58097;48.364;-1.224;2023-09-12T07:31:06;99522.75;;;18.87;92.69
70544;BME280;58097;48.364;-1.224;2023-09-12T07:33:32;99516.09;;;18.88;92.46
70544;BME280;58097;48.364;-1.224;2023-09-12T07:35:57;99517.78;;;18.90;92.33
70544;BME280;58097;48.364;-1.224;2023-09-12T07:38:25;99513.91;;;18.91;92.46
70544;BME280;58097;48.364;-1.224;2023-09-12T07:40:50;99525.75;;;18.93;92.39
70544;BME280;58097;48.364;-1.224;2023-09-12T07:43:16;99524.44;;;18.95;92.58
70544;BME280;58097;48.364;-1.224;2023-09-12T07:45:41;99521.19;;;18.98;92.48
70544;BME280;58097;48.364;-1.224;2023-09-12T07:48:08;99521.59;;;19.02;92.67
70544;BME280;58097;48.364;-1.224;2023-09-12T07:50:34;99515.53;;;19.05;92.41
70544;BME280;58097;48.364;-1.224;2023-09-12T07:52:59;99515.50;;;19.11;92.35
70544;BME280;58097;48.364;-1.224;2023-09-12T07:55:24;99518.72;;;19.15;92.82
70544;BME280;58097;48.364;-1.224;2023-09-12T07:57:50;99522.38;;;19.15;92.50
70544;BME280;58097;48.364;-1.224;2023-09-12T08:00:15;99518.72;;;19.15;94.38
70544;BME280;58097;48.364;-1.224;2023-09-12T08:02:42;99522.81;;;19.12;93.48
70544;BME280;58097;48.364;-1.224;2023-09-12T08:05:08;99522.41;;;19.09;94.58
70544;BME280;58097;48.364;-1.224;2023-09-12T08:07:36;99518.09;;;19.13;93.69
70544;BME280;58097;48.364;-1.224;2023-09-12T08:10:01;99516.81;;;19.09;94.68
70544;BME280;58097;48.364;-1.224;2023-09-12T08:12:28;99515.28;;;19.13;94.08
70544;BME280;58097;48.364;-1.224;2023-09-12T08:14:54;99510.53;;;19.13;93.37
70544;BME280;58097;48.364;-1.224;2023-09-12T08:17:20;99512.25;;;19.14;93.42
70544;BME280;58097;48.364;-1.224;2023-09-12T08:19:45;99514.75;;;19.23;93.49
70544;BME280;58097;48.364;-1.224;2023-09-12T08:22:12;99511.28;;;19.27;93.21
70544;BME280;58097;48.364;-1.224;2023-09-12T08:24:38;99514.47;;;19.31;93.12
70544;BME280;58097;48.364;-1.224;2023-09-12T08:27:05;99510.34;;;19.40;93.23
70544;BME280;58097;48.364;-1.224;2023-09-12T08:29:31;99511.81;;;19.42;93.52
70544;BME280;58097;48.364;-1.224;2023-09-12T08:31:57;99520.38;;;19.47;93.29
70544;BME280;58097;48.364;-1.224;2023-09-12T08:34:23;99524.69;;;19.50;93.46
70544;BME280;58097;48.364;-1.224;2023-09-12T08:36:48;99523.81;;;19.49;93.08
70544;BME280;58097;48.364;-1.224;2023-09-12T08:39:16;99523.59;;;19.51;93.16
70544;BME280;58097;48.364;-1.224;2023-09-12T08:41:44;99524.66;;;19.57;93.05
70544;BME280;58097;48.364;-1.224;2023-09-12T08:44:13;99526.75;;;19.61;93.09
70544;BME280;58097;48.364;-1.224;2023-09-12T08:46:41;99525.00;;;19.67;93.15
70544;BME280;58097;48.364;-1.224;2023-09-12T08:49:07;99529.06;;;19.71;92.79
70544;BME280;58097;48.364;-1.224;2023-09-12T08:51:35;99521.28;;;19.73;92.77
70544;BME280;58097;48.364;-1.224;2023-09-12T08:54:00;99526.59;;;19.81;93.18
70544;BME280;58097;48.364;-1.224;2023-09-12T08:56:29;99523.94;;;19.86;92.80
70544;BME280;58097;48.364;-1.224;2023-09-12T08:58:55;99522.78;;;19.94;93.08
70544;BME280;58097;48.364;-1.224;2023-09-12T09:01:20;99522.34;;;19.97;93.82
70544;BME280;58097;48.364;-1.224;2023-09-12T09:03:46;99525.19;;;19.90;93.78
70544;BME280;58097;48.364;-1.224;2023-09-12T09:06:13;99520.03;;;19.87;94.18
70544;BME280;58097;48.364;-1.224;2023-09-12T09:08:41;99514.44;;;19.87;93.35
70544;BME280;58097;48.364;-1.224;2023-09-12T09:11:08;99522.56;;;19.95;93.59
70544;BME280;58097;48.364;-1.224;2023-09-12T09:13:34;99511.78;;;19.92;94.25
70544;BME280;58097;48.364;-1.224;2023-09-12T09:16:10;99519.53;;;19.97;93.50
70544;BME280;58097;48.364;-1.224;2023-09-12T09:19:02;99525.47;;;20.07;93.34
70544;BME280;58097;48.364;-1.224;2023-09-12T09:21:30;99522.81;;;20.12;93.22
70544;BME280;58097;48.364;-1.224;2023-09-12T09:23:59;99516.66;;;20.22;93.12
70544;BME280;58097;48.364;-1.224;2023-09-12T09:26:25;99522.81;;;20.30;93.00
70544;BME280;58097;48.364;-1.224;2023-09-12T09:29:05;99534.28;;;20.29;93.02
70544;BME280;58097;48.364;-1.224;2023-09-12T09:31:31;99538.97;;;20.35;92.87
70544;BME280;58097;48.364;-1.224;2023-09-12T09:33:58;99538.03;;;20.41;92.70
70544;BME280;58097;48.364;-1.224;2023-09-12T09:36:23;99542.72;;;20.47;92.99
70544;BME280;58097;48.364;-1.224;2023-09-12T09:38:49;99544.19;;;20.50;91.91
70544;BME280;58097;48.364;-1.224;2023-09-12T09:41:14;99535.94;;;20.55;91.93
70544;BME280;58097;48.364;-1.224;2023-09-12T09:43:40;99539.53;;;20.62;92.48
70544;BME280;58097;48.364;-1.224;2023-09-12T09:46:05;99546.75;;;20.69;91.82
70544;BME280;58097;48.364;-1.224;2023-09-12T09:48:30;99546.00;;;20.62;91.47
70544;BME280;58097;48.364;-1.224;2023-09-12T09:51:03;99543.25;;;20.74;92.02
70544;BME280;58097;48.364;-1.224;2023-09-12T09:53:31;99546.13;;;20.86;92.47
70544;BME280;58097;48.364;-1.224;2023-09-12T09:56:27;99541.78;;;21.01;91.55
70544;BME280;58097;48.364;-1.224;2023-09-12T09:58:56;99536.41;;;21.00;89.97
70544;BME280;58097;48.364;-1.224;2023-09-12T10:01:28;99546.50;;;21.19;90.96
70544;BME280;58097;48.364;-1.224;2023-09-12T10:03:57;99535.84;;;21.40;91.18
70544;BME280;58097;48.364;-1.224;2023-09-12T10:06:23;99537.94;;;21.56;89.50
70544;BME280;58097;48.364;-1.224;2023-09-12T10:08:52;99533.47;;;21.78;88.72
70544;BME280;58097;48.364;-1.224;2023-09-12T10:11:22;99537.50;;;21.94;88.56
70544;BME280;58097;48.364;-1.224;2023-09-12T10:13:55;99529.81;;;22.01;88.62
70544;BME280;58097;48.364;-1.224;2023-09-12T10:16:29;99526.97;;;21.89;87.34
70544;BME280;58097;48.364;-1.224;2023-09-12T10:21:37;99539.44;;;21.93;88.63
70544;BME280;58097;48.364;-1.224;2023-09-12T10:24:05;99537.66;;;22.11;87.78
70544;BME280;58097;48.364;-1.224;2023-09-12T10:26:33;99537.50;;;22.41;88.14
70544;BME280;58097;48.364;-1.224;2023-09-12T10:29:00;99538.66;;;22.68;83.57
70544;BME280;58097;48.364;-1.224;2023-09-12T10:31:28;99538.81;;;23.02;87.19
70544;BME280;58097;48.364;-1.224;2023-09-12T10:33:54;99544.00;;;23.22;84.68
70544;BME280;58097;48.364;-1.224;2023-09-12T10:36:20;99549.09;;;23.53;84.93
70544;BME280;58097;48.364;-1.224;2023-09-12T10:38:47;99545.91;;;23.78;84.80
70544;BME280;58097;48.364;-1.224;2023-09-12T10:41:14;99548.19;;;23.98;81.72
70544;BME280;58097;48.364;-1.224;2023-09-12T10:43:40;99543.66;;;24.14;80.26
70544;BME280;58097;48.364;-1.224;2023-09-12T10:46:07;99547.00;;;24.10;79.13
70544;BME280;58097;48.364;-1.224;2023-09-12T10:48:34;99552.72;;;24.16;77.13
70544;BME280;58097;48.364;-1.224;2023-09-12T10:51:01;99548.03;;;24.38;76.98
70544;BME280;58097;48.364;-1.224;2023-09-12T10:53:30;99548.06;;;24.60;79.63
70544;BME280;58097;48.364;-1.224;2023-09-12T10:56:16;99546.00;;;24.77;73.21
70544;BME280;58097;48.364;-1.224;2023-09-12T11:01:29;99549.28;;;24.69;76.04
70544;BME280;58097;48.364;-1.224;2023-09-12T11:03:55;99553.72;;;24.43;74.05
70544;BME280;58097;48.364;-1.224;2023-09-12T11:06:29;99552.16;;;24.30;72.33
70544;BME280;58097;48.364;-1.224;2023-09-12T11:11:38;99552.97;;;24.14;73.98
70544;BME280;58097;48.364;-1.224;2023-09-12T11:14:07;99543.22;;;24.22;76.11
70544;BME280;58097;48.364;-1.224;2023-09-12T11:16:32;99557.81;;;24.30;75.45
70544;BME280;58097;48.364;-1.224;2023-09-12T11:21:46;99553.69;;;24.60;75.11
70544;BME280;58097;48.364;-1.224;2023-09-12T11:24:12;99547.97;;;24.77;73.27
70544;BME280;58097;48.364;-1.224;2023-09-12T11:27:01;99544.56;;;24.96;73.22
70544;BME280;58097;48.364;-1.224;2023-09-12T11:29:38;99548.31;;;25.02;73.67
70544;BME280;58097;48.364;-1.224;2023-09-12T11:32:04;99562.72;;;25.00;72.04
70544;BME280;58097;48.364;-1.224;2023-09-12T11:34:50;99556.72;;;24.97;72.07
70544;BME280;58097;48.364;-1.224;2023-09-12T11:37:23;99554.25;;;25.00;72.60
70544;BME280;58097;48.364;-1.224;2023-09-12T11:39:50;99556.41;;;24.93;72.53
70544;BME280;58097;48.364;-1.224;2023-09-12T11:42:16;99561.63;;;24.85;70.10
70544;BME280;58097;48.364;-1.224;2023-09-12T11:44:42;99566.78;;;24.88;72.64
70544;BME280;58097;48.364;-1.224;2023-09-12T11:47:10;99556.59;;;24.87;72.19
70544;BME280;58097;48.364;-1.224;2023-09-12T11:49:37;99552.97;;;24.91;69.18
70544;BME280;58097;48.364;-1.224;2023-09-12T11:52:03;99552.66;;;24.88;71.50
70544;BME280;58097;48.364;-1.224;2023-09-12T11:54:30;99557.50;;;24.92;68.47
70544;BME280;58097;48.364;-1.224;2023-09-12T11:56:57;99558.63;;;24.91;72.22
70544;BME280;58097;48.364;-1.224;2023-09-12T11:59:27;99555.81;;;24.69;69.13
70544;BME280;58097;48.364;-1.224;2023-09-12T12:01:53;99554.47;;;24.77;69.25
70544;BME280;58097;48.364;-1.224;2023-09-12T12:04:23;99557.63;;;24.81;69.64
70544;BME280;58097;48.364;-1.224;2023-09-12T12:08:04;99557.75;;;24.47;67.96
70544;BME280;58097;48.364;-1.224;2023-09-12T12:10:30;99558.47;;;24.37;68.53
70544;BME280;58097;48.364;-1.224;2023-09-12T12:12:55;99549.78;;;24.44;70.00
70544;BME280;58097;48.364;-1.224;2023-09-12T12:15:21;99558.41;;;24.54;69.55
70544;BME280;58097;48.364;-1.224;2023-09-12T12:17:47;99550.44;;;24.51;65.37
70544;BME280;58097;48.364;-1.224;2023-09-12T12:20:12;99550.97;;;24.48;65.42
70544;BME280;58097;48.364;-1.224;2023-09-12T12:22:38;99545.72;;;24.57;68.09
70544;BME280;58097;48.364;-1.224;2023-09-12T12:25:11;99546.41;;;24.64;69.31
70544;BME280;58097;48.364;-1.224;2023-09-12T12:27:40;99544.00;;;24.56;67.17
70544;BME280;58097;48.364;-1.224;2023-09-12T12:30:08;99551.03;;;24.53;69.49
70544;BME280;58097;48.364;-1.224;2023-09-12T12:32:33;99549.19;;;24.42;69.96
70544;BME280;58097;48.364;-1.224;2023-09-12T12:34:59;99557.28;;;24.33;68.29
70544;BME280;58097;48.364;-1.224;2023-09-12T12:37:31;99555.88;;;24.19;69.49
70544;BME280;58097;48.364;-1.224;2023-09-12T12:39:57;99557.69;;;24.08;68.66
70544;BME280;58097;48.364;-1.224;2023-09-12T12:42:22;99552.97;;;23.97;68.61
70544;BME280;58097;48.364;-1.224;2023-09-12T12:44:54;99551.66;;;24.00;69.68
70544;BME280;58097;48.364;-1.224;2023-09-12T12:47:20;99549.06;;;23.98;69.62
70544;BME280;58097;48.364;-1.224;2023-09-12T12:49:50;99552.72;;;23.99;69.13
70544;BME280;58097;48.364;-1.224;2023-09-12T12:52:16;99547.53;;;23.91;70.32
70544;BME280;58097;48.364;-1.224;2023-09-12T12:54:42;99544.44;;;23.92;70.71
70544;BME280;58097;48.364;-1.224;2023-09-12T12:57:09;99547.44;;;23.86;70.99
70544;BME280;58097;48.364;-1.224;2023-09-12T12:59:37;99547.25;;;23.92;71.93
70544;BME280;58097;48.364;-1.224;2023-09-12T13:02:03;99552.41;;;23.95;70.65
70544;BME280;58097;48.364;-1.224;2023-09-12T13:04:36;99543.91;;;24.12;71.63